createdAt,value
2023-02-18T00:01:43.097Z,3.00
2023-02-18T00:04:11.134Z,4.03
2023-02-18T00:06:38.878Z,3.00
2023-02-18T00:09:09.577Z,4.25
2023-02-18T00:11:38.639Z,3.22
2023-02-18T00:14:10.104Z,3.22
2023-02-18T00:16:38.113Z,3.55
2023-02-18T00:19:09.243Z,2.92
2023-02-18T00:21:37.370Z,3.20
2023-02-18T00:24:06.157Z,3.05
2023-02-18T00:26:34.247Z,3.30
2023-02-18T00:29:01.883Z,2.83
2023-02-18T00:31:31.475Z,3.60
2023-02-18T00:34:01.287Z,2.88
2023-02-18T00:36:31.110Z,3.00
2023-02-18T00:39:03.487Z,3.17
2023-02-18T00:41:31.640Z,2.90
2023-02-18T00:43:59.287Z,2.40
2023-02-18T00:46:28.461Z,2.70
2023-02-18T00:48:56.167Z,2.88
2023-02-18T00:51:25.240Z,3.28
2023-02-18T00:53:54.988Z,2.97
2023-02-18T00:56:22.602Z,3.08
2023-02-18T00:58:50.854Z,2.90
2023-02-18T01:01:19.304Z,3.08
2023-02-18T01:03:47.270Z,3.40
2023-02-18T01:06:15.851Z,2.72
2023-02-18T01:08:43.902Z,3.38
2023-02-18T01:11:14.169Z,3.05
2023-02-18T01:13:42.304Z,3.13
2023-02-18T01:16:10.846Z,2.05
2023-02-18T01:18:39.819Z,2.83
2023-02-18T01:21:08.593Z,2.33
2023-02-18T01:23:37.610Z,3.40
2023-02-18T01:26:05.684Z,2.47
2023-02-18T01:28:34.854Z,3.33
2023-02-18T01:31:07.261Z,2.17
2023-02-18T01:33:35.447Z,2.75
2023-02-18T01:36:03.478Z,2.90
2023-02-18T01:38:31.137Z,3.70
2023-02-18T01:40:58.725Z,2.33
2023-02-18T01:43:26.366Z,3.47
2023-02-18T01:46:04.278Z,2.45
2023-02-18T01:48:35.938Z,3.13
2023-02-18T01:51:09.777Z,3.40
2023-02-18T01:53:41.976Z,2.65
2023-02-18T01:56:15.018Z,2.65
2023-02-18T01:58:43.934Z,2.42
2023-02-18T02:01:12.921Z,2.40
2023-02-18T02:03:42.416Z,3.03
2023-02-18T02:06:18.088Z,2.40
2023-02-18T02:08:48.544Z,2.38
2023-02-18T02:11:24.489Z,2.40
2023-02-18T02:14:06.665Z,2.88
2023-02-18T02:16:41.835Z,3.03
2023-02-18T02:19:30.037Z,2.47
2023-02-18T02:22:29.947Z,2.40
2023-02-18T02:25:10.304Z,3.22
2023-02-18T02:28:01.868Z,2.15
2023-02-18T02:30:48.479Z,2.25
2023-02-18T02:33:34.007Z,3.08
2023-02-18T02:36:08.161Z,2.25
2023-02-18T02:38:42.214Z,2.00
2023-02-18T02:41:19.516Z,2.10
2023-02-18T02:43:57.198Z,2.65
2023-02-18T02:46:29.561Z,2.38
2023-02-18T02:49:04.606Z,2.45
2023-02-18T02:51:40.101Z,2.28
2023-02-18T02:54:14.324Z,2.40
2023-02-18T02:56:41.950Z,2.25
2023-02-18T02:59:17.102Z,2.05
2023-02-18T03:01:59.189Z,2.42
2023-02-18T03:04:47.015Z,2.20
2023-02-18T03:07:36.912Z,2.47
2023-02-18T03:10:18.479Z,2.08
2023-02-18T03:12:54.833Z,2.25
2023-02-18T03:15:28.262Z,3.00
2023-02-18T03:18:03.505Z,2.20
2023-02-18T03:20:36.239Z,2.53
2023-02-18T03:23:16.804Z,2.55
2023-02-18T03:25:45.140Z,2.95
2023-02-18T03:28:18.230Z,2.30
2023-02-18T03:30:49.948Z,2.33
2023-02-18T03:33:21.524Z,2.85
2023-02-18T03:35:51.005Z,2.20
2023-02-18T03:38:24.021Z,2.97
2023-02-18T03:40:52.087Z,2.00
2023-02-18T03:43:20.074Z,1.98
2023-02-18T03:45:47.718Z,2.10
2023-02-18T03:48:15.329Z,2.38
2023-02-18T03:50:42.876Z,2.47
2023-02-18T03:53:10.472Z,1.60
2023-02-18T03:55:39.601Z,1.95
2023-02-18T03:58:07.485Z,2.20
2023-02-18T04:00:35.105Z,1.58
2023-02-18T04:03:02.698Z,1.90
2023-02-18T04:05:30.474Z,2.28
2023-02-18T04:07:57.981Z,1.85
2023-02-18T04:10:25.537Z,2.08
2023-02-18T04:12:54.372Z,2.67
2023-02-18T04:15:21.910Z,2.25
2023-02-18T04:17:49.498Z,2.45
2023-02-18T04:20:17.486Z,2.05
2023-02-18T04:22:45.115Z,1.55
2023-02-18T04:25:12.823Z,2.10
2023-02-18T04:27:40.416Z,2.15
2023-02-18T04:30:10.334Z,1.95
2023-02-18T04:32:38.396Z,1.92
2023-02-18T04:35:06.405Z,2.03
2023-02-18T04:37:34.010Z,2.00
2023-02-18T04:40:01.548Z,1.83
2023-02-18T04:42:29.262Z,2.15
2023-02-18T04:44:56.801Z,2.00
2023-02-18T04:47:25.719Z,1.83
2023-02-18T04:49:53.291Z,1.83
2023-02-18T04:52:20.785Z,1.90
2023-02-18T04:54:48.438Z,1.55
2023-02-18T04:57:16.037Z,1.90
2023-02-18T04:59:43.695Z,1.95
2023-02-18T05:02:11.172Z,1.45
2023-02-18T05:04:40.066Z,1.42
2023-02-18T05:07:07.679Z,2.17
2023-02-18T05:09:35.211Z,1.70
2023-02-18T05:12:03.048Z,1.77
2023-02-18T05:14:30.619Z,1.85
2023-02-18T05:16:58.155Z,1.70
2023-02-18T05:19:25.743Z,1.48
2023-02-18T05:21:54.583Z,1.50
2023-02-18T05:24:22.826Z,2.05
2023-02-18T05:26:50.445Z,2.22
2023-02-18T05:29:17.948Z,2.03
2023-02-18T05:31:45.584Z,2.10
2023-02-18T05:34:13.281Z,2.00
2023-02-18T05:36:40.864Z,2.47
2023-02-18T05:39:09.794Z,1.92
2023-02-18T05:41:37.373Z,2.03
2023-02-18T05:44:22.584Z,1.58
2023-02-18T05:46:50.137Z,1.80
2023-02-18T05:49:17.730Z,1.92
2023-02-18T05:51:45.248Z,1.63
2023-02-18T05:54:14.835Z,1.67
2023-02-18T05:56:42.404Z,1.88
2023-02-18T05:59:10.028Z,1.92
2023-02-18T06:01:37.632Z,1.80
2023-02-18T06:04:05.366Z,1.98
2023-02-18T06:06:32.946Z,1.85
2023-02-18T06:09:00.483Z,1.77
2023-02-18T06:11:29.382Z,1.60
2023-02-18T06:13:56.984Z,2.10
2023-02-18T06:16:25.056Z,1.52
2023-02-18T06:18:52.749Z,2.00
2023-02-18T06:21:20.594Z,1.30
2023-02-18T06:23:48.691Z,1.40
2023-02-18T06:26:16.353Z,1.58
2023-02-18T06:28:45.289Z,2.22
2023-02-18T06:31:12.920Z,1.98
2023-02-18T06:33:40.538Z,4.15
2023-02-18T06:36:11.692Z,2.08
2023-02-18T06:38:40.608Z,1.42
2023-02-18T06:41:08.430Z,2.00
2023-02-18T06:43:36.210Z,1.55
2023-02-18T06:46:06.338Z,2.55
2023-02-18T06:48:34.373Z,2.17
2023-02-18T06:51:02.020Z,1.95
2023-02-18T06:53:29.621Z,1.67
2023-02-18T06:55:57.169Z,2.42
2023-02-18T06:58:24.874Z,2.65
2023-02-18T07:00:52.463Z,3.20
2023-02-18T07:03:21.759Z,2.17
2023-02-18T07:05:49.385Z,2.58
2023-02-18T07:08:16.943Z,2.60
2023-02-18T07:10:44.520Z,2.95
2023-02-18T07:13:12.040Z,3.13
2023-02-18T07:15:39.688Z,2.33
2023-02-18T07:18:07.658Z,2.55
2023-02-18T07:20:36.781Z,2.40
2023-02-18T07:23:04.344Z,3.17
2023-02-18T07:25:31.896Z,2.80
2023-02-18T07:27:59.562Z,2.30
2023-02-18T07:30:27.115Z,3.22
2023-02-18T07:32:54.727Z,4.72
2023-02-18T07:35:22.434Z,7.00
2023-02-18T07:37:51.983Z,6.88
2023-02-18T07:40:21.589Z,6.55
2023-02-18T07:42:49.870Z,5.93
2023-02-18T07:45:17.505Z,6.20
2023-02-18T07:47:45.464Z,5.47
2023-02-18T07:50:13.062Z,5.18
2023-02-18T07:52:41.623Z,5.35
2023-02-18T07:55:10.752Z,4.30
2023-02-18T07:57:57.351Z,3.58
2023-02-18T08:00:25.643Z,3.45
2023-02-18T08:02:53.202Z,3.10
2023-02-18T08:05:20.858Z,3.35
2023-02-18T08:07:48.423Z,3.13
2023-02-18T08:10:17.344Z,2.72
2023-02-18T08:12:44.868Z,2.50
2023-02-18T08:15:12.521Z,3.30
2023-02-18T08:17:40.129Z,2.42
2023-02-18T08:20:08.788Z,2.00
2023-02-18T08:22:36.317Z,2.70
2023-02-18T08:25:04.105Z,2.33
2023-02-18T08:27:33.242Z,2.95
2023-02-18T08:30:00.784Z,2.65
2023-02-18T08:32:29.001Z,1.83
2023-02-18T08:34:56.818Z,2.08
2023-02-18T08:37:25.482Z,2.75
2023-02-18T08:39:53.190Z,2.38
2023-02-18T08:42:20.752Z,2.30
2023-02-18T08:44:49.660Z,2.90
2023-02-18T08:48:13.484Z,2.53
2023-02-18T08:50:05.075Z,2.20
2023-02-18T08:52:32.681Z,3.35
2023-02-18T08:55:00.244Z,2.67
2023-02-18T08:57:28.974Z,2.85
2023-02-18T08:59:57.845Z,2.67
2023-02-18T09:02:25.429Z,2.72
2023-02-18T09:04:53.028Z,2.97
2023-02-18T09:07:20.633Z,2.63
2023-02-18T09:09:48.309Z,3.17
2023-02-18T09:12:15.891Z,3.80
2023-02-18T09:14:43.470Z,3.13
2023-02-18T09:17:12.344Z,4.32
2023-02-18T09:19:39.915Z,4.35
2023-02-18T09:22:07.525Z,4.38
2023-02-18T09:24:37.992Z,5.40
2023-02-18T09:27:05.643Z,4.95
2023-02-18T09:29:34.103Z,4.50
2023-02-18T09:32:02.085Z,5.13
2023-02-18T09:34:31.302Z,5.40
2023-02-18T09:36:58.955Z,5.55
2023-02-18T09:39:26.765Z,6.05
2023-02-18T09:41:57.693Z,5.53
2023-02-18T09:44:28.802Z,5.90
2023-02-18T09:47:00.680Z,5.97
2023-02-18T09:49:31.207Z,6.40
2023-02-18T09:52:05.747Z,6.60
2023-02-18T09:54:33.466Z,6.03
2023-02-18T09:57:01.877Z,6.00
2023-02-18T09:59:30.006Z,6.53
2023-02-18T10:01:58.228Z,6.45
2023-02-18T10:04:32.056Z,6.50
2023-02-18T10:07:03.774Z,6.28
2023-02-18T10:09:35.348Z,6.97
2023-02-18T10:12:13.066Z,6.38
2023-02-18T10:14:40.875Z,6.68
2023-02-18T10:17:11.108Z,7.13
2023-02-18T10:19:41.905Z,6.22
2023-02-18T10:22:15.054Z,6.45
2023-02-18T10:24:47.523Z,6.05
2023-02-18T10:27:20.510Z,6.43
2023-02-18T10:29:48.150Z,6.90
2023-02-18T10:32:22.725Z,6.10
2023-02-18T10:34:54.538Z,6.03
2023-02-18T10:37:41.002Z,6.75
2023-02-18T10:40:14.883Z,6.78
2023-02-18T10:42:51.275Z,6.93
2023-02-18T10:45:31.879Z,8.00
2023-02-18T10:48:12.504Z,7.82
2023-02-18T10:50:42.602Z,7.35
2023-02-18T10:53:14.723Z,7.90
2023-02-18T10:55:44.159Z,7.57
2023-02-18T10:58:32.749Z,6.55
2023-02-18T11:01:04.898Z,6.40
2023-02-18T11:03:45.867Z,6.38
2023-02-18T11:06:21.740Z,5.80
2023-02-18T11:08:51.449Z,6.68
2023-02-18T11:11:24.282Z,6.93
2023-02-18T11:13:55.197Z,6.10
2023-02-18T11:16:23.582Z,5.13
2023-02-18T11:18:51.805Z,4.43
2023-02-18T11:21:27.591Z,4.88
2023-02-18T11:23:57.844Z,4.47
2023-02-18T11:26:29.335Z,4.30
2023-02-18T11:29:03.888Z,4.10
2023-02-18T11:31:42.520Z,3.45
2023-02-18T11:34:17.528Z,2.83
2023-02-18T11:36:45.942Z,2.15
2023-02-18T11:39:24.727Z,2.53
2023-02-18T11:41:57.236Z,1.77
2023-02-18T11:44:29.837Z,1.52
2023-02-18T11:47:00.696Z,0.88
2023-02-18T11:49:29.956Z,0.70
2023-02-18T11:52:07.238Z,0.70
2023-02-18T11:54:36.489Z,0.80
2023-02-18T11:57:06.563Z,1.00
2023-02-18T11:59:36.799Z,0.80
2023-02-18T12:02:19.568Z,1.00
2023-02-18T12:04:52.872Z,0.90
2023-02-18T12:07:24.648Z,1.58
2023-02-18T12:09:57.368Z,1.65
2023-02-18T12:12:29.250Z,1.00
2023-02-18T12:14:57.410Z,0.70
2023-02-18T12:17:47.978Z,0.70
2023-02-18T12:20:28.593Z,0.80
2023-02-18T12:23:03.643Z,1.17
2023-02-18T12:25:41.614Z,0.93
2023-02-18T12:28:25.472Z,1.00
2023-02-18T12:31:19.494Z,1.20
2023-02-18T12:33:57.790Z,1.48
2023-02-18T12:36:38.629Z,1.33
2023-02-18T12:39:19.135Z,1.55
2023-02-18T12:42:00.984Z,1.77
2023-02-18T12:44:37.348Z,2.30
2023-02-18T12:47:26.062Z,2.05
2023-02-18T12:50:18.137Z,2.53
2023-02-18T12:52:59.426Z,2.20
2023-02-18T12:55:37.509Z,2.17
2023-02-18T12:58:16.835Z,2.30
2023-02-18T13:01:26.647Z,2.28
2023-02-18T13:04:22.859Z,2.88
2023-02-18T13:07:21.260Z,3.22
2023-02-18T13:10:03.005Z,3.50
2023-02-18T13:12:45.178Z,3.67
2023-02-18T13:15:18.712Z,2.33
2023-02-18T13:17:47.399Z,3.03
2023-02-18T13:20:21.506Z,3.45
2023-02-18T13:22:53.562Z,3.33
2023-02-18T13:25:25.717Z,3.78
2023-02-18T13:28:09.945Z,3.17
2023-02-18T13:30:46.148Z,3.00
2023-02-18T13:33:20.268Z,3.60
2023-02-18T13:35:53.299Z,3.92
2023-02-18T13:38:36.634Z,3.47
2023-02-18T13:41:05.171Z,3.47
2023-02-18T13:43:34.792Z,3.65
2023-02-18T13:46:11.086Z,3.65
2023-02-18T13:48:45.654Z,3.95
2023-02-18T13:51:15.447Z,3.13
2023-02-18T13:53:46.106Z,3.50
2023-02-18T13:56:23.097Z,3.20
2023-02-18T13:58:53.604Z,3.30
2023-02-18T14:01:26.080Z,3.80
2023-02-18T14:03:59.389Z,4.03
2023-02-18T14:06:29.468Z,3.60
2023-02-18T14:09:25.835Z,3.50
2023-02-18T14:11:56.342Z,3.53
2023-02-18T14:14:45.097Z,3.60
2023-02-18T14:17:31.768Z,4.13
2023-02-18T14:20:31.166Z,3.63
2023-02-18T14:22:59.177Z,2.83
2023-02-18T14:25:36.363Z,2.85
2023-02-18T14:28:25.238Z,2.40
2023-02-18T14:30:53.367Z,2.67
2023-02-18T14:33:22.663Z,2.90
2023-02-18T14:35:57.364Z,2.83
2023-02-18T14:38:34.275Z,3.10
2023-02-18T14:41:17.842Z,3.45
2023-02-18T14:44:05.206Z,3.28
2023-02-18T14:46:41.800Z,3.63
2023-02-18T14:49:38.958Z,3.40
2023-02-18T14:52:11.907Z,2.85
2023-02-18T14:54:41.987Z,4.00
2023-02-18T14:57:15.499Z,3.95
2023-02-18T14:59:43.804Z,4.40
2023-02-18T15:02:19.560Z,4.72
2023-02-18T15:04:50.508Z,4.57
2023-02-18T15:07:20.594Z,4.88
2023-02-18T15:09:49.285Z,4.95
2023-02-18T15:12:20.590Z,4.78
2023-02-18T15:14:50.676Z,5.30
2023-02-18T15:17:21.408Z,5.03
2023-02-18T15:19:53.790Z,4.57
2023-02-18T15:22:24.066Z,4.97
2023-02-18T15:24:53.376Z,4.47
2023-02-18T15:27:23.152Z,5.32
2023-02-18T15:29:51.950Z,4.35
2023-02-18T15:32:22.319Z,3.72
2023-02-18T15:34:53.749Z,4.10
2023-02-18T15:37:21.662Z,3.70
2023-02-18T15:39:49.339Z,3.42
2023-02-18T15:42:26.270Z,3.28
2023-02-18T15:44:58.172Z,5.30
2023-02-18T15:47:26.041Z,2.40
2023-02-18T15:49:58.045Z,2.08
2023-02-18T15:52:28.100Z,2.03
2023-02-18T15:54:57.658Z,2.05
2023-02-18T15:57:29.288Z,2.72
2023-02-18T16:00:04.379Z,2.15
2023-02-18T16:02:34.916Z,2.00
2023-02-18T16:05:05.528Z,2.50
2023-02-18T16:07:39.282Z,4.50
2023-02-18T16:10:17.524Z,3.38
2023-02-18T16:12:48.416Z,2.40
2023-02-18T16:15:21.763Z,2.60
2023-02-18T16:17:49.450Z,2.20
2023-02-18T16:20:27.240Z,3.35
2023-02-18T16:22:56.402Z,4.07
2023-02-18T16:25:27.071Z,3.60
2023-02-18T16:28:04.303Z,3.88
2023-02-18T16:30:33.673Z,3.75
2023-02-18T16:33:01.430Z,3.50
2023-02-18T16:35:44.009Z,4.65
2023-02-18T16:38:17.993Z,3.55
2023-02-18T16:40:45.644Z,3.40
2023-02-18T16:43:15.509Z,4.13
2023-02-18T16:45:46.518Z,3.55
2023-02-18T16:48:20.533Z,3.97
2023-02-18T16:50:51.401Z,3.50
2023-02-18T16:53:19.980Z,3.83
2023-02-18T16:55:47.577Z,3.42
2023-02-18T16:58:15.161Z,9.57
2023-02-18T17:00:43.834Z,4.88
2023-02-18T17:03:12.517Z,4.60
2023-02-18T17:05:41.058Z,4.35
2023-02-18T17:08:18.597Z,3.92
2023-02-18T17:10:46.920Z,4.07
2023-02-18T17:13:15.727Z,5.45
2023-02-18T17:15:46.375Z,5.10
2023-02-18T17:18:15.170Z,4.30
2023-02-18T17:20:43.297Z,5.00
2023-02-18T17:23:14.650Z,5.63
2023-02-18T17:25:43.360Z,4.85
2023-02-18T17:28:10.879Z,5.32
2023-02-18T17:30:40.486Z,5.63
2023-02-18T17:33:09.191Z,5.50
2023-02-18T17:35:36.830Z,5.10
2023-02-18T17:38:09.565Z,4.97
2023-02-18T17:40:38.530Z,4.80
2023-02-18T17:43:06.100Z,5.38
2023-02-18T17:45:36.416Z,5.28
2023-02-18T17:48:04.524Z,4.75
2023-02-18T17:50:32.773Z,6.47
2023-02-18T17:53:00.394Z,5.15
2023-02-18T17:55:29.355Z,5.20
2023-02-18T17:57:59.202Z,5.05
2023-02-18T18:00:28.684Z,5.78
2023-02-18T18:02:56.567Z,5.80
2023-02-18T18:05:26.661Z,7.45
2023-02-18T18:07:55.402Z,6.90
2023-02-18T18:10:28.364Z,7.13
2023-02-18T18:12:56.079Z,6.50
2023-02-18T18:15:29.078Z,6.65
2023-02-18T18:17:57.927Z,7.07
2023-02-18T18:20:26.937Z,6.05
2023-02-18T18:22:56.446Z,6.95
2023-02-18T18:25:26.662Z,6.57
2023-02-18T18:27:54.800Z,6.72
2023-02-18T18:30:24.623Z,7.53
2023-02-18T18:32:53.974Z,7.22
2023-02-18T18:35:25.039Z,7.25
2023-02-18T18:37:52.918Z,9.52
2023-02-18T18:40:22.203Z,9.23
2023-02-18T18:42:49.920Z,8.65
2023-02-18T18:45:21.335Z,9.40
2023-02-18T18:47:49.259Z,9.23
2023-02-18T18:50:19.168Z,10.70
2023-02-18T18:52:47.657Z,9.63
2023-02-18T18:55:27.967Z,10.05
2023-02-18T18:57:56.286Z,8.65
2023-02-18T19:00:26.981Z,8.45
2023-02-18T19:02:54.563Z,9.35
2023-02-18T19:05:26.936Z,9.85
2023-02-18T19:07:54.833Z,9.98
2023-02-18T19:10:23.439Z,10.40
2023-02-18T19:12:51.301Z,9.38
2023-02-18T19:15:21.496Z,10.02
2023-02-18T19:17:51.184Z,10.35
2023-02-18T19:20:22.296Z,9.00
2023-02-18T19:22:51.472Z,9.52
2023-02-18T19:25:20.317Z,10.10
2023-02-18T19:27:49.262Z,9.70
2023-02-18T19:30:18.829Z,8.95
2023-02-18T19:32:47.016Z,7.78
2023-02-18T19:35:14.568Z,8.55
2023-02-18T19:37:42.447Z,8.40
2023-02-18T19:40:14.665Z,9.00
2023-02-18T19:42:42.429Z,7.97
2023-02-18T19:45:11.057Z,7.85
2023-02-18T19:47:38.718Z,8.13
2023-02-18T19:50:08.276Z,7.35
2023-02-18T19:52:36.424Z,7.47
2023-02-18T19:55:04.163Z,7.50
2023-02-18T19:57:34.540Z,6.93
2023-02-18T20:00:02.206Z,7.05
2023-02-18T20:02:40.471Z,6.70
2023-02-18T20:05:09.670Z,5.97
2023-02-18T20:07:37.354Z,6.00
2023-02-18T20:10:06.128Z,6.32
2023-02-18T20:12:35.043Z,5.88
2023-02-18T20:15:03.805Z,5.45
2023-02-18T20:17:31.488Z,5.05
2023-02-18T20:19:59.178Z,5.07
2023-02-18T20:22:26.803Z,4.65
2023-02-18T20:24:54.400Z,5.13
2023-02-18T20:27:22.128Z,5.07
2023-02-18T20:29:52.013Z,5.40
2023-02-18T20:32:19.691Z,6.10
2023-02-18T20:34:47.509Z,7.03
2023-02-18T20:37:15.063Z,6.82
2023-02-18T20:39:42.833Z,6.70
2023-02-18T20:42:16.283Z,6.43
2023-02-18T20:44:44.711Z,5.85
2023-02-18T20:47:14.357Z,6.80
2023-02-18T20:49:42.849Z,6.57
2023-02-18T20:52:11.236Z,8.95
2023-02-18T20:54:39.866Z,7.75
2023-02-18T20:57:08.885Z,8.95
2023-02-18T20:59:36.645Z,8.07
2023-02-18T21:02:04.995Z,7.68
2023-02-18T21:04:34.044Z,8.23
2023-02-18T21:07:01.753Z,8.25
2023-02-18T21:09:29.314Z,8.60
2023-02-18T21:11:56.955Z,8.98
2023-02-18T21:14:25.028Z,9.88
2023-02-18T21:16:52.570Z,8.60
2023-02-18T21:19:20.211Z,9.15
2023-02-18T21:21:49.078Z,9.95
2023-02-18T21:24:16.721Z,9.25
2023-02-18T21:26:44.282Z,10.00
2023-02-18T21:29:12.292Z,9.82
2023-02-18T21:31:42.406Z,9.43
2023-02-18T21:34:13.394Z,9.48
2023-02-18T21:36:41.271Z,10.13
2023-02-18T21:39:11.643Z,9.52
2023-02-18T21:41:40.951Z,9.50
2023-02-18T21:44:08.955Z,7.85
2023-02-18T21:46:37.413Z,8.77
2023-02-18T21:49:10.312Z,8.32
2023-02-18T21:52:00.298Z,8.52
2023-02-18T21:54:31.369Z,7.63
2023-02-18T21:57:00.315Z,8.98
2023-02-18T21:59:29.383Z,7.28
2023-02-18T22:01:59.758Z,9.25
2023-02-18T22:04:27.530Z,9.43
2023-02-18T22:06:55.053Z,8.38
2023-02-18T22:09:22.751Z,8.48
2023-02-18T22:11:51.726Z,9.30
2023-02-18T22:14:19.377Z,7.15
2023-02-18T22:16:46.937Z,7.95
2023-02-18T22:19:15.107Z,6.82
2023-02-18T22:21:43.073Z,6.68
2023-02-18T22:24:12.307Z,7.40
2023-02-18T22:26:40.052Z,6.47
2023-02-18T22:29:08.914Z,6.57
2023-02-18T22:31:36.654Z,7.07
2023-02-18T22:34:04.376Z,7.07
2023-02-18T22:36:32.758Z,8.52
2023-02-18T22:39:01.305Z,6.38
2023-02-18T22:41:30.771Z,6.22
2023-02-18T22:44:00.248Z,6.15
2023-02-18T22:46:31.333Z,7.57
2023-02-18T22:49:00.342Z,6.55
2023-02-18T22:51:29.317Z,5.70
2023-02-18T22:53:58.457Z,5.10
2023-02-18T22:56:28.059Z,5.45
2023-02-18T22:58:57.046Z,4.68
2023-02-18T23:01:26.773Z,5.85
2023-02-18T23:03:56.642Z,5.72
2023-02-18T23:06:24.874Z,4.93
2023-02-18T23:08:54.403Z,5.65
2023-02-18T23:11:22.473Z,4.45
2023-02-18T23:14:10.217Z,5.70
2023-02-18T23:16:52.673Z,4.45
2023-02-18T23:19:21.665Z,4.32
2023-02-18T23:21:49.503Z,4.85
2023-02-18T23:24:17.113Z,4.95
2023-02-18T23:26:44.701Z,4.30
2023-02-18T23:29:12.355Z,5.10
2023-02-18T23:31:40.060Z,4.72
2023-02-18T23:34:09.310Z,4.78
2023-02-18T23:36:38.158Z,4.57
2023-02-18T23:39:09.022Z,4.97
2023-02-18T23:41:37.406Z,5.28
2023-02-18T23:44:06.097Z,3.83
2023-02-18T23:46:34.342Z,4.18
2023-02-18T23:49:02.407Z,4.55
2023-02-18T23:51:30.616Z,4.53
2023-02-18T23:53:59.449Z,4.43
2023-02-18T23:56:28.184Z,7.88
2023-02-18T23:58:57.392Z,3.97
